createdAt,value
2022-08-05T00:00:15.986Z,61.51
2022-08-05T00:01:20.707Z,61.21
2022-08-05T00:02:15.773Z,61.30
2022-08-05T00:03:15.675Z,59.81
2022-08-05T00:04:14.686Z,59.31
2022-08-05T00:06:03.301Z,60.50
2022-08-05T00:06:27.876Z,59.74
2022-08-05T00:07:58.710Z,60.83
2022-08-05T00:08:32.561Z,61.04
2022-08-05T00:09:16.038Z,61.93
2022-08-05T00:10:14.608Z,63.13
2022-08-05T00:11:23.879Z,63.73
2022-08-05T00:12:15.599Z,63.53
2022-08-05T00:13:18.681Z,62.43
2022-08-05T00:14:17.092Z,64.26
2022-08-05T00:15:55.374Z,62.96
2022-08-05T00:16:15.558Z,62.76
2022-08-05T00:17:18.715Z,62.46
2022-08-05T00:18:21.555Z,61.07
2022-08-05T00:19:15.519Z,61.16
2022-08-05T00:20:14.468Z,62.56
2022-08-05T00:21:15.457Z,63.09
2022-08-05T00:22:14.448Z,61.99
2022-08-05T00:23:14.462Z,62.39
2022-08-05T00:24:16.061Z,62.70
2022-08-05T00:25:14.409Z,61.89
2022-08-05T00:26:14.420Z,62.99
2022-08-05T00:27:16.894Z,61.79
2022-08-05T00:28:14.379Z,63.29
2022-08-05T00:29:14.380Z,62.39
2022-08-05T00:30:14.347Z,62.49
2022-08-05T00:31:14.360Z,63.02
2022-08-05T00:32:15.712Z,62.92
2022-08-05T00:33:15.678Z,63.92
2022-08-05T00:34:56.987Z,64.22
2022-08-05T00:35:15.279Z,63.32
2022-08-05T00:37:11.754Z,62.72
2022-08-05T00:37:15.273Z,63.22
2022-08-05T00:38:14.266Z,64.72
2022-08-05T00:39:14.456Z,65.22
2022-08-05T00:40:14.210Z,65.02
2022-08-05T00:41:14.202Z,63.92
2022-08-05T00:42:31.787Z,63.56
2022-08-05T00:43:15.344Z,62.42
2022-08-05T00:44:14.205Z,64.03
2022-08-05T00:45:14.200Z,62.45
2022-08-05T00:46:14.150Z,62.65
2022-08-05T00:47:14.110Z,65.45
2022-08-05T00:48:14.119Z,62.65
2022-08-05T00:49:14.129Z,60.75
2022-08-05T00:50:14.096Z,63.25
2022-08-05T00:51:50.443Z,63.95
2022-08-05T00:52:15.061Z,63.25
2022-08-05T00:54:00.765Z,63.15
2022-08-05T00:54:15.021Z,63.65
2022-08-05T00:55:14.019Z,62.35
2022-08-05T00:56:14.021Z,60.85
2022-08-05T00:57:14.001Z,64.15
2022-08-05T00:58:13.994Z,63.45
2022-08-05T00:59:13.961Z,63.35
2022-08-05T01:00:13.940Z,61.65
2022-08-05T01:01:13.994Z,61.25
2022-08-05T01:02:13.921Z,62.15
2022-08-05T01:03:22.930Z,63.06
2022-08-05T01:04:15.792Z,63.15
2022-08-05T01:05:13.894Z,62.15
2022-08-05T01:06:15.236Z,61.15
2022-08-05T01:07:13.970Z,63.56
2022-08-05T01:08:40.996Z,63.95
2022-08-05T01:09:14.821Z,63.75
2022-08-05T01:10:13.831Z,64.48
2022-08-05T01:11:13.878Z,63.08
2022-08-05T01:12:18.819Z,62.28
2022-08-05T01:13:22.439Z,63.68
2022-08-05T01:14:15.422Z,62.08
2022-08-05T01:15:36.034Z,64.39
2022-08-05T01:16:14.732Z,62.58
2022-08-05T01:17:14.773Z,61.58
2022-08-05T01:18:13.741Z,61.28
2022-08-05T01:19:14.377Z,63.39
2022-08-05T01:20:13.683Z,63.18
2022-08-05T01:21:13.661Z,63.48
2022-08-05T01:22:18.872Z,61.91
2022-08-05T01:23:15.530Z,62.01
2022-08-05T01:24:14.633Z,63.01
2022-08-05T01:25:13.755Z,61.71
2022-08-05T01:26:13.602Z,61.21
2022-08-05T01:27:19.505Z,62.92
2022-08-05T01:28:14.583Z,62.92
2022-08-05T01:29:13.554Z,63.01
2022-08-05T01:30:18.670Z,62.61
2022-08-05T01:31:14.524Z,64.01
2022-08-05T01:32:18.378Z,62.61
2022-08-05T01:33:14.515Z,64.62
2022-08-05T01:34:14.497Z,65.01
2022-08-05T01:35:13.486Z,65.62
2022-08-05T01:36:16.219Z,65.01
2022-08-05T01:37:24.741Z,65.15
2022-08-05T01:38:14.562Z,66.45
2022-08-05T01:39:14.470Z,64.25
2022-08-05T01:40:14.423Z,66.75
2022-08-05T01:41:13.394Z,64.34
2022-08-05T01:42:13.738Z,62.84
2022-08-05T01:43:22.068Z,65.15
2022-08-05T01:44:15.331Z,65.95
2022-08-05T01:45:13.353Z,65.85
2022-08-05T01:46:16.255Z,65.58
2022-08-05T01:47:14.327Z,65.78
2022-08-05T01:48:13.332Z,64.88
2022-08-05T01:49:23.840Z,66.28
2022-08-05T01:50:15.696Z,67.69
2022-08-05T01:51:13.283Z,67.18
2022-08-05T01:52:17.922Z,67.18
2022-08-05T01:53:14.244Z,64.98
2022-08-05T01:54:14.233Z,67.99
2022-08-05T01:55:13.222Z,70.09
2022-08-05T01:56:13.221Z,70.89
2022-08-05T01:58:11.871Z,71.80
2022-08-05T01:58:15.641Z,72.94
2022-08-05T01:59:13.153Z,71.63
2022-08-05T02:00:13.188Z,70.32
2022-08-05T02:01:13.141Z,69.42
2022-08-05T02:02:13.183Z,66.82
2022-08-05T02:03:16.343Z,68.42
2022-08-05T02:04:14.098Z,69.92
2022-08-05T02:05:13.083Z,68.72
2022-08-05T02:06:37.191Z,67.22
2022-08-05T02:07:22.030Z,70.53
2022-08-05T02:08:14.046Z,69.22
2022-08-05T02:09:16.323Z,68.32
2022-08-05T02:10:17.488Z,68.82
2022-08-05T02:11:12.994Z,67.92
2022-08-05T02:12:12.985Z,67.32
2022-08-05T02:13:16.324Z,67.72
2022-08-05T02:14:13.110Z,67.32
2022-08-05T02:15:12.967Z,67.14
2022-08-05T02:16:16.298Z,71.36
2022-08-05T02:17:29.948Z,69.56
2022-08-05T02:18:33.084Z,67.52
2022-08-05T02:19:13.916Z,67.11
2022-08-05T02:20:12.883Z,68.12
2022-08-05T02:21:14.717Z,69.85
2022-08-05T02:22:25.422Z,66.05
2022-08-05T02:23:13.847Z,66.24
2022-08-05T02:24:12.835Z,66.75
2022-08-05T02:25:13.805Z,67.95
2022-08-05T02:26:12.795Z,69.76
2022-08-05T02:27:12.787Z,67.95
2022-08-05T02:28:12.804Z,65.74
2022-08-05T02:29:21.622Z,65.74
2022-08-05T02:30:13.745Z,70.26
2022-08-05T02:31:13.851Z,69.46
2022-08-05T02:32:12.725Z,70.36
2022-08-05T02:33:13.726Z,71.00
2022-08-05T02:34:13.706Z,71.90
2022-08-05T02:35:14.279Z,69.79
2022-08-05T02:36:13.270Z,69.19
2022-08-05T02:37:12.666Z,67.48
2022-08-05T02:38:13.321Z,68.18
2022-08-05T02:39:13.836Z,70.89
2022-08-05T02:40:12.616Z,70.09
2022-08-05T02:41:17.255Z,70.50
2022-08-05T02:42:25.950Z,70.59
2022-08-05T02:43:13.585Z,69.59
2022-08-05T02:44:13.478Z,71.13
2022-08-05T02:45:12.545Z,70.23
2022-08-05T02:46:12.546Z,71.94
2022-08-05T02:47:12.516Z,72.13
2022-08-05T02:48:13.030Z,69.52
2022-08-05T02:49:12.506Z,71.03
2022-08-05T02:50:12.476Z,72.74
2022-08-05T02:51:12.459Z,72.53
2022-08-05T02:52:25.897Z,70.93
2022-08-05T02:53:16.131Z,69.92
2022-08-05T02:54:36.170Z,70.93
2022-08-05T02:55:13.457Z,73.44
2022-08-05T02:56:16.102Z,72.53
2022-08-05T02:58:13.424Z,70.36
2022-08-05T02:58:20.177Z,71.36
2022-08-05T02:59:12.357Z,69.96
2022-08-05T03:00:12.378Z,69.25
2022-08-05T03:01:12.357Z,70.26
2022-08-05T03:02:12.346Z,69.96
2022-08-05T03:03:12.316Z,69.06
2022-08-05T03:04:12.943Z,68.85
2022-08-05T03:05:12.275Z,71.67
2022-08-05T03:06:55.568Z,73.88
2022-08-05T03:07:24.687Z,74.48
2022-08-05T03:08:13.513Z,73.68
2022-08-05T03:09:12.229Z,72.97
2022-08-05T03:10:13.395Z,72.57
2022-08-05T03:11:56.655Z,70.36
2022-08-05T03:12:13.197Z,69.45
2022-08-05T03:13:16.545Z,70.06
2022-08-05T03:14:13.299Z,71.16
2022-08-05T03:15:12.357Z,71.36
2022-08-05T03:16:12.135Z,69.25
2022-08-05T03:17:12.116Z,68.35
2022-08-05T03:18:12.114Z,69.56
2022-08-05T03:19:33.046Z,68.95
2022-08-05T03:20:13.593Z,68.98
2022-08-05T03:21:12.097Z,68.78
2022-08-05T03:22:16.686Z,72.00
2022-08-05T03:23:13.028Z,70.59
2022-08-05T03:24:12.016Z,71.60
2022-08-05T03:25:33.974Z,72.00
2022-08-05T03:26:31.716Z,71.50
2022-08-05T03:27:13.019Z,71.80
2022-08-05T03:28:11.999Z,70.19
2022-08-05T03:29:12.419Z,68.98
2022-08-05T03:30:12.938Z,67.88
2022-08-05T03:31:41.479Z,66.17
2022-08-05T03:32:14.456Z,65.97
2022-08-05T03:33:11.927Z,68.08
2022-08-05T03:34:11.887Z,69.69
2022-08-05T03:35:11.877Z,70.39
2022-08-05T03:36:11.874Z,72.71
2022-08-05T03:37:11.868Z,70.70
2022-08-05T03:38:11.871Z,67.68
2022-08-05T03:39:12.991Z,68.18
2022-08-05T03:40:12.861Z,68.88
2022-08-05T03:41:11.812Z,69.69
2022-08-05T03:42:11.827Z,68.68
2022-08-05T03:43:59.219Z,71.70
2022-08-05T03:44:12.762Z,70.19
2022-08-05T03:45:22.124Z,68.98
2022-08-05T03:46:12.726Z,71.09
2022-08-05T03:47:13.641Z,73.31
2022-08-05T03:48:11.717Z,71.80
2022-08-05T03:49:11.688Z,70.19
2022-08-05T03:50:11.701Z,70.29
2022-08-05T03:52:35.276Z,69.59
2022-08-05T03:52:48.404Z,68.48
2022-08-05T03:55:06.917Z,66.67
2022-08-05T03:56:00.722Z,67.78
2022-08-05T03:56:05.325Z,65.97
2022-08-05T03:56:26.948Z,65.56
2022-08-05T03:57:16.541Z,65.67
2022-08-05T03:58:12.569Z,66.97
2022-08-05T03:59:11.580Z,66.17
2022-08-05T04:00:11.539Z,68.78
2022-08-05T04:01:12.864Z,70.70
2022-08-05T04:02:17.281Z,74.18
2022-08-05T04:03:26.653Z,74.98
2022-08-05T04:04:12.486Z,72.77
2022-08-05T04:05:11.477Z,71.77
2022-08-05T04:06:11.470Z,70.26
2022-08-05T04:07:11.469Z,73.18
2022-08-05T04:08:22.471Z,73.18
2022-08-05T04:09:12.421Z,73.58
2022-08-05T04:10:11.427Z,75.29
2022-08-05T04:11:12.413Z,75.75
2022-08-05T04:12:23.430Z,73.18
2022-08-05T04:13:12.371Z,71.16
2022-08-05T04:14:11.354Z,69.12
2022-08-05T04:15:15.463Z,70.83
2022-08-05T04:16:11.400Z,69.62
2022-08-05T04:17:11.410Z,67.41
2022-08-05T04:18:20.225Z,65.91
2022-08-05T04:19:12.308Z,64.80
2022-08-05T04:20:11.292Z,64.20
2022-08-05T04:21:11.298Z,66.11
2022-08-05T04:22:12.313Z,68.12
2022-08-05T04:23:12.594Z,66.71
2022-08-05T04:24:19.733Z,66.91
2022-08-05T04:25:12.220Z,66.17
2022-08-05T04:26:11.228Z,64.07
2022-08-05T04:27:11.189Z,63.96
2022-08-05T04:28:12.813Z,65.57
2022-08-05T04:29:11.192Z,66.28
2022-08-05T04:30:11.154Z,64.57
2022-08-05T04:31:11.130Z,65.77
2022-08-05T04:32:11.120Z,65.77
2022-08-05T04:33:11.129Z,67.38
2022-08-05T04:34:31.710Z,68.15
2022-08-05T04:35:19.623Z,66.14
2022-08-05T04:36:45.753Z,67.75
2022-08-05T04:37:20.030Z,69.66
2022-08-05T04:38:12.040Z,70.46
2022-08-05T04:39:11.045Z,71.73
2022-08-05T04:40:11.018Z,74.14
2022-08-05T04:41:11.019Z,73.03
2022-08-05T04:42:10.973Z,72.63
2022-08-05T04:43:16.653Z,71.33
2022-08-05T04:44:11.988Z,70.63
2022-08-05T04:45:10.951Z,68.59
2022-08-05T04:46:11.949Z,67.29
2022-08-05T04:47:12.071Z,68.59
2022-08-05T04:48:18.398Z,70.09
2022-08-05T04:49:14.517Z,70.06
2022-08-05T04:50:11.667Z,71.16
2022-08-05T04:51:11.529Z,72.77
2022-08-05T04:52:10.849Z,72.23
2022-08-05T04:53:10.832Z,71.12
2022-08-05T04:54:10.861Z,69.82
2022-08-05T04:55:14.581Z,73.03
2022-08-05T04:56:32.832Z,71.63
2022-08-05T04:57:11.783Z,72.50
2022-08-05T04:58:12.421Z,71.69
2022-08-05T04:59:22.288Z,71.80
2022-08-05T05:00:11.737Z,71.30
2022-08-05T05:01:10.801Z,70.79
2022-08-05T05:02:41.360Z,73.10
2022-08-05T05:03:11.762Z,73.26
2022-08-05T05:04:11.690Z,70.36
2022-08-05T05:05:17.030Z,72.16
2022-08-05T05:06:40.197Z,70.76
2022-08-05T05:07:11.650Z,69.06
2022-08-05T05:08:14.100Z,70.66
2022-08-05T05:09:14.366Z,70.73
2022-08-05T05:10:11.610Z,69.82
2022-08-05T05:11:10.621Z,69.53
2022-08-05T05:12:10.587Z,69.53
2022-08-05T05:13:10.572Z,70.03
2022-08-05T05:14:10.570Z,67.93
2022-08-05T05:15:17.333Z,70.19
2022-08-05T05:16:11.540Z,70.06
2022-08-05T05:17:10.522Z,68.73
2022-08-05T05:18:10.530Z,68.46
2022-08-05T05:19:19.515Z,66.73
2022-08-05T05:20:11.540Z,67.20
2022-08-05T05:21:10.484Z,66.44
2022-08-05T05:22:24.049Z,64.91
2022-08-05T05:23:19.910Z,64.48
2022-08-05T05:24:11.431Z,63.43
2022-08-05T05:25:16.086Z,62.90
2022-08-05T05:26:11.421Z,60.98
2022-08-05T05:27:10.391Z,60.66
2022-08-05T05:28:10.383Z,59.44
2022-08-05T05:29:14.691Z,58.91
2022-08-05T05:30:15.315Z,58.29
2022-08-05T05:31:11.352Z,57.86
2022-08-05T05:32:12.579Z,57.34
2022-08-05T05:33:16.868Z,55.33
2022-08-05T05:34:11.319Z,55.30
2022-08-05T05:35:10.272Z,54.69
2022-08-05T05:36:11.263Z,54.17
2022-08-05T05:37:10.241Z,54.53
2022-08-05T05:38:12.720Z,54.90
2022-08-05T05:39:11.050Z,53.99
2022-08-05T05:40:10.232Z,53.17
2022-08-05T05:41:10.212Z,52.36
2022-08-05T05:42:10.183Z,52.83
2022-08-05T05:43:10.195Z,51.35
2022-08-05T05:44:15.756Z,49.55
2022-08-05T05:45:11.155Z,51.52
2022-08-05T05:46:15.824Z,51.00
2022-08-05T05:47:23.555Z,51.10
2022-08-05T05:48:11.171Z,50.59
2022-08-05T05:49:22.456Z,51.25
2022-08-05T05:50:11.145Z,50.44
2022-08-05T05:51:15.273Z,50.12
2022-08-05T05:52:13.311Z,49.70
2022-08-05T05:53:21.409Z,48.52
2022-08-05T05:54:11.524Z,48.21
2022-08-05T05:55:13.570Z,48.96
2022-08-05T05:56:10.036Z,47.27
2022-08-05T05:57:13.542Z,47.77
2022-08-05T05:58:09.993Z,48.13
2022-08-05T05:59:10.015Z,45.56
2022-08-05T06:00:10.229Z,46.33
2022-08-05T06:01:13.382Z,46.42
2022-08-05T06:02:10.933Z,46.30
2022-08-05T06:03:40.624Z,44.52
2022-08-05T06:04:12.012Z,44.81
2022-08-05T06:05:10.432Z,45.08
2022-08-05T06:06:10.897Z,44.09
2022-08-05T06:07:10.646Z,43.30
2022-08-05T06:08:09.878Z,43.10
2022-08-05T06:09:17.710Z,43.48
2022-08-05T06:10:10.846Z,42.87
2022-08-05T06:11:09.856Z,43.36
2022-08-05T06:12:09.875Z,43.63
2022-08-05T06:13:09.809Z,42.24
2022-08-05T06:14:09.799Z,42.34
2022-08-05T06:15:12.403Z,42.44
2022-08-05T06:16:29.707Z,41.93
2022-08-05T06:17:22.253Z,40.45
2022-08-05T06:18:10.721Z,41.01
2022-08-05T06:19:09.761Z,40.62
2022-08-05T06:20:09.768Z,40.31
2022-08-05T06:21:16.572Z,39.53
2022-08-05T06:22:10.669Z,40.39
2022-08-05T06:23:09.652Z,40.08
2022-08-05T06:24:11.800Z,39.18
2022-08-05T06:25:25.269Z,39.29
2022-08-05T06:26:13.857Z,39.29
2022-08-05T06:27:17.085Z,40.08
2022-08-05T06:28:21.427Z,40.48
2022-08-05T06:29:23.565Z,40.11
2022-08-05T06:30:17.664Z,38.44
2022-08-05T06:31:11.275Z,38.73
2022-08-05T06:32:21.468Z,38.42
2022-08-05T06:33:10.676Z,38.42
2022-08-05T06:34:09.537Z,39.20
2022-08-05T06:35:21.776Z,39.28
2022-08-05T06:36:10.524Z,38.70
2022-08-05T06:37:09.483Z,38.79
2022-08-05T06:38:11.666Z,37.82
2022-08-05T06:39:09.510Z,37.43
2022-08-05T06:40:09.466Z,38.42
2022-08-05T06:41:09.434Z,38.32
2022-08-05T06:42:09.424Z,38.62
2022-08-05T06:43:57.867Z,39.04
2022-08-05T06:44:10.386Z,39.67
2022-08-05T06:45:09.629Z,40.29
2022-08-05T06:46:10.376Z,40.43
2022-08-05T06:47:10.330Z,41.93
2022-08-05T06:48:44.335Z,43.15
2022-08-05T06:49:10.342Z,43.88
2022-08-05T06:50:09.305Z,44.78
2022-08-05T06:51:12.044Z,45.59
2022-08-05T06:52:37.391Z,47.57
2022-08-05T06:53:11.713Z,47.99
2022-08-05T06:54:19.041Z,47.22
2022-08-05T06:55:10.257Z,48.35
2022-08-05T06:56:26.112Z,49.06
2022-08-05T06:57:56.636Z,48.49
2022-08-05T06:58:20.594Z,49.80
2022-08-05T06:59:11.983Z,50.31
2022-08-05T07:00:09.853Z,51.20
2022-08-05T07:01:09.239Z,52.11
2022-08-05T07:02:09.172Z,50.56
2022-08-05T07:03:09.775Z,51.35
2022-08-05T07:04:09.141Z,52.26
2022-08-05T07:05:18.499Z,53.15
2022-08-05T07:06:14.389Z,52.87
2022-08-05T07:07:10.232Z,53.86
2022-08-05T07:08:10.986Z,54.36
2022-08-05T07:09:09.079Z,54.36
2022-08-05T07:10:09.081Z,55.05
2022-08-05T07:11:15.550Z,56.13
2022-08-05T07:12:10.050Z,54.95
2022-08-05T07:13:09.020Z,55.94
2022-08-05T07:14:20.553Z,55.44
2022-08-05T07:15:10.020Z,54.99
2022-08-05T07:16:09.010Z,52.68
2022-08-05T07:18:01.317Z,51.10
2022-08-05T07:18:12.586Z,49.60
2022-08-05T07:19:09.967Z,49.80
2022-08-05T07:20:32.421Z,51.74
2022-08-05T07:21:09.922Z,51.64
2022-08-05T07:22:08.921Z,49.46
2022-08-05T07:23:08.882Z,48.94
2022-08-05T07:24:11.335Z,47.81
2022-08-05T07:25:22.834Z,47.77
2022-08-05T07:26:09.873Z,47.62
2022-08-05T07:27:09.040Z,45.34
2022-08-05T07:28:11.606Z,44.83
2022-08-05T07:29:08.845Z,44.03
2022-08-05T07:30:27.677Z,44.20
2022-08-05T07:31:09.822Z,42.71
2022-08-05T07:32:08.795Z,41.64
2022-08-05T07:33:09.382Z,42.11
2022-08-05T07:34:08.790Z,43.75
2022-08-05T07:36:02.995Z,41.50
2022-08-05T07:36:20.335Z,42.68
2022-08-05T07:37:11.742Z,43.24
2022-08-05T07:38:12.425Z,41.07
2022-08-05T07:39:24.629Z,42.71
2022-08-05T07:40:32.048Z,40.17
2022-08-05T07:42:07.407Z,40.39
2022-08-05T07:42:15.106Z,41.85
2022-08-05T07:43:20.510Z,41.87
2022-08-05T07:44:14.523Z,43.46
2022-08-05T07:45:09.620Z,42.09
2022-08-05T07:46:24.215Z,42.40
2022-08-05T07:47:10.177Z,42.58
2022-08-05T07:48:09.566Z,42.14
2022-08-05T07:49:08.550Z,42.34
2022-08-05T07:50:08.554Z,41.22
2022-08-05T07:51:23.765Z,40.50
2022-08-05T07:52:09.627Z,40.08
2022-08-05T07:53:08.525Z,38.62
2022-08-05T07:54:10.018Z,39.28
2022-08-05T07:55:15.861Z,39.94
2022-08-05T07:57:00.202Z,37.98
2022-08-05T07:57:41.529Z,38.83
2022-08-05T07:58:09.749Z,37.84
2022-08-05T07:59:09.430Z,38.50
2022-08-05T08:00:11.352Z,37.24
2022-08-05T08:01:12.332Z,38.02
2022-08-05T08:02:15.575Z,37.16
2022-08-05T08:03:15.150Z,36.69
2022-08-05T08:04:09.401Z,37.76
2022-08-05T08:05:08.399Z,38.23
2022-08-05T08:06:08.407Z,36.99
2022-08-05T08:07:08.327Z,36.61
2022-08-05T08:08:12.450Z,36.04
2022-08-05T08:09:08.318Z,37.02
2022-08-05T08:10:08.322Z,37.80
2022-08-05T08:11:08.783Z,39.65
2022-08-05T08:12:19.040Z,39.26
2022-08-05T08:13:09.269Z,38.75
2022-08-05T08:14:08.251Z,37.66
2022-08-05T08:15:13.981Z,38.23
2022-08-05T08:16:35.841Z,38.12
2022-08-05T08:17:09.193Z,36.93
2022-08-05T08:18:13.864Z,37.59
2022-08-05T08:19:09.219Z,36.64
2022-08-05T08:20:22.605Z,36.83
2022-08-05T08:21:09.696Z,35.67
2022-08-05T08:22:09.207Z,35.98
2022-08-05T08:23:59.863Z,36.76
2022-08-05T08:24:13.560Z,37.15
2022-08-05T08:25:16.137Z,36.36
2022-08-05T08:26:09.103Z,37.65
2022-08-05T08:27:08.094Z,37.76
2022-08-05T08:28:18.213Z,37.88
2022-08-05T08:30:03.779Z,38.48
2022-08-05T08:30:29.810Z,38.89
2022-08-05T08:31:09.028Z,40.17
2022-08-05T08:32:10.824Z,40.39
2022-08-05T08:33:08.204Z,40.81
2022-08-05T08:34:07.994Z,40.81
2022-08-05T08:35:13.452Z,41.32
2022-08-05T08:37:08.950Z,41.66
2022-08-05T08:38:07.964Z,43.04
2022-08-05T08:39:15.123Z,41.87
2022-08-05T08:40:08.928Z,43.26
2022-08-05T08:41:07.911Z,43.75
2022-08-05T08:42:11.055Z,43.77
2022-08-05T08:45:16.088Z,43.89
2022-08-05T08:45:22.763Z,44.10
2022-08-05T08:45:23.662Z,45.37
2022-08-05T08:46:09.862Z,45.76
2022-08-05T08:47:47.487Z,45.40
2022-08-05T08:48:22.580Z,45.89
2022-08-05T08:50:06.048Z,46.11
2022-08-05T08:50:29.821Z,46.11
2022-08-05T08:51:30.655Z,46.50
2022-08-05T08:52:13.502Z,46.13
2022-08-05T08:53:11.971Z,46.33
2022-08-05T08:54:07.760Z,46.42
2022-08-05T08:55:13.219Z,45.76
2022-08-05T08:56:08.719Z,47.23
2022-08-05T08:57:11.435Z,46.94
2022-08-05T08:58:08.682Z,46.34
2022-08-05T08:59:14.744Z,46.44
2022-08-05T09:00:08.673Z,46.94
2022-08-05T09:01:07.726Z,46.42
2022-08-05T09:02:08.668Z,47.08
2022-08-05T09:03:07.629Z,45.37
2022-08-05T09:04:07.709Z,43.49
2022-08-05T09:05:17.883Z,42.48
2022-08-05T09:06:11.575Z,41.38
2022-08-05T09:07:10.668Z,42.14
2022-08-05T09:08:09.739Z,41.56
2022-08-05T09:09:07.576Z,42.12
2022-08-05T09:10:07.561Z,41.13
2022-08-05T09:11:07.541Z,40.73
2022-08-05T09:12:19.982Z,41.40
2022-08-05T09:13:08.499Z,42.28
2022-08-05T09:14:54.095Z,41.38
2022-08-05T09:15:08.486Z,40.29
2022-08-05T09:16:07.453Z,39.70
2022-08-05T09:17:09.443Z,39.82
2022-08-05T09:18:08.783Z,40.52
2022-08-05T09:19:07.505Z,39.55
2022-08-05T09:20:07.568Z,41.11
2022-08-05T09:21:11.615Z,41.30
2022-08-05T09:22:21.799Z,40.52
2022-08-05T09:23:09.518Z,40.45
2022-08-05T09:24:07.397Z,42.30
2022-08-05T09:25:13.510Z,40.66
2022-08-05T09:26:09.212Z,41.93
2022-08-05T09:27:07.355Z,41.32
2022-08-05T09:28:07.364Z,41.42
2022-08-05T09:29:07.317Z,41.01
2022-08-05T09:30:07.285Z,40.91
2022-08-05T09:31:43.339Z,39.82
2022-08-05T09:32:41.513Z,41.86
2022-08-05T09:33:08.259Z,39.62
2022-08-05T09:34:09.824Z,39.65
2022-08-05T09:35:07.226Z,39.55
2022-08-05T09:36:11.771Z,40.45
2022-08-05T09:37:14.968Z,39.69
2022-08-05T09:38:16.535Z,41.07
2022-08-05T09:39:17.959Z,41.36
2022-08-05T09:40:08.227Z,41.28
2022-08-05T09:41:07.161Z,40.99
2022-08-05T09:42:08.439Z,40.99
2022-08-05T09:43:08.370Z,41.97
2022-08-05T09:44:07.118Z,40.88
2022-08-05T09:46:05.015Z,43.04
2022-08-05T09:46:08.864Z,41.38
2022-08-05T09:47:10.393Z,42.05
2022-08-05T09:48:08.070Z,43.12
2022-08-05T09:49:19.493Z,41.35
2022-08-05T09:50:08.332Z,42.12
2022-08-05T09:51:14.976Z,40.64
2022-08-05T09:52:08.080Z,40.23
2022-08-05T09:53:06.991Z,40.33
2022-08-05T09:54:06.992Z,40.70
2022-08-05T09:55:55.636Z,39.90
2022-08-05T09:56:13.270Z,38.93
2022-08-05T09:57:23.198Z,40.00
2022-08-05T09:58:07.935Z,41.36
2022-08-05T09:59:06.941Z,41.44
2022-08-05T10:00:07.878Z,39.78
2022-08-05T10:01:14.821Z,38.93
2022-08-05T10:02:07.888Z,39.51
2022-08-05T10:03:06.932Z,39.43
2022-08-05T10:04:10.413Z,39.75
2022-08-05T10:05:07.984Z,40.06
2022-08-05T10:06:15.532Z,40.56
2022-08-05T10:07:20.741Z,41.44
2022-08-05T10:08:36.917Z,41.73
2022-08-05T10:09:07.852Z,39.69
2022-08-05T10:10:15.555Z,40.08
2022-08-05T10:11:07.789Z,41.35
2022-08-05T10:12:18.774Z,40.66
2022-08-05T10:13:09.905Z,42.41
2022-08-05T10:14:06.742Z,43.37
2022-08-05T10:15:06.753Z,43.27
2022-08-05T10:16:06.713Z,40.16
2022-08-05T10:17:06.694Z,40.35
2022-08-05T10:18:07.711Z,40.37
2022-08-05T10:19:09.167Z,40.08
2022-08-05T10:20:10.070Z,40.66
2022-08-05T10:21:11.756Z,40.45
2022-08-05T10:22:07.694Z,41.91
2022-08-05T10:23:08.962Z,41.50
2022-08-05T10:24:10.669Z,41.30
2022-08-05T10:25:06.649Z,41.01
2022-08-05T10:26:07.121Z,40.60
2022-08-05T10:27:07.560Z,40.89
2022-08-05T10:28:13.510Z,40.41
2022-08-05T10:29:07.575Z,41.65
2022-08-05T10:31:21.048Z,40.88
2022-08-05T10:32:54.652Z,40.08
2022-08-05T10:32:54.654Z,38.52
2022-08-05T10:33:09.260Z,38.21
2022-08-05T10:34:08.146Z,37.04
2022-08-05T10:35:06.472Z,37.35
2022-08-05T10:36:06.459Z,39.10
2022-08-05T10:37:06.447Z,38.81
2022-08-05T10:38:06.437Z,39.41
2022-08-05T10:39:10.279Z,38.05
2022-08-05T10:40:19.465Z,38.83
2022-08-05T10:41:07.486Z,40.11
2022-08-05T10:42:06.385Z,39.53
2022-08-05T10:43:06.368Z,39.72
2022-08-05T10:44:06.372Z,40.11
2022-08-05T10:45:09.607Z,39.14
2022-08-05T10:46:07.333Z,39.43
2022-08-05T10:47:06.319Z,38.87
2022-08-05T10:48:31.421Z,38.96
2022-08-05T10:49:10.135Z,39.94
2022-08-05T10:50:20.877Z,39.94
2022-08-05T10:51:21.777Z,40.23
2022-08-05T10:52:10.532Z,39.36
2022-08-05T10:53:06.269Z,39.84
2022-08-05T10:54:28.227Z,40.64
2022-08-05T10:55:07.220Z,40.16
2022-08-05T10:56:14.906Z,39.75
2022-08-05T10:57:07.192Z,41.30
2022-08-05T10:58:06.180Z,40.23
2022-08-05T10:59:12.465Z,39.36
2022-08-05T11:00:11.033Z,39.67
2022-08-05T11:01:07.153Z,40.16
2022-08-05T11:02:06.153Z,39.86
2022-08-05T11:03:23.424Z,40.45
2022-08-05T11:04:07.143Z,40.06
2022-08-05T11:05:06.114Z,40.64
2022-08-05T11:06:06.082Z,39.75
2022-08-05T11:07:06.072Z,39.18
2022-08-05T11:08:27.659Z,39.28
2022-08-05T11:09:07.053Z,39.86
2022-08-05T11:10:09.962Z,41.11
2022-08-05T11:11:14.577Z,40.52
2022-08-05T11:12:07.003Z,40.50
2022-08-05T11:13:06.024Z,40.89
2022-08-05T11:14:06.066Z,40.97
2022-08-05T11:15:19.427Z,39.12
2022-08-05T11:16:06.953Z,39.31
2022-08-05T11:18:00.087Z,39.88
2022-08-05T11:18:06.936Z,39.88
2022-08-05T11:20:11.337Z,39.88
2022-08-05T11:20:11.399Z,39.76
2022-08-05T11:21:11.597Z,40.15
2022-08-05T11:22:06.885Z,38.96
2022-08-05T11:23:08.933Z,38.96
2022-08-05T11:24:29.757Z,39.06
2022-08-05T11:26:03.409Z,39.16
2022-08-05T11:26:08.567Z,38.29
2022-08-05T11:27:05.826Z,38.87
2022-08-05T11:28:05.807Z,39.55
2022-08-05T11:29:13.345Z,39.06
2022-08-05T11:30:06.797Z,38.85
2022-08-05T11:31:06.551Z,39.82
2022-08-05T11:32:05.784Z,39.53
2022-08-05T11:33:05.757Z,39.22
2022-08-05T11:34:08.202Z,37.76
2022-08-05T11:35:05.748Z,37.08
2022-08-05T11:36:08.170Z,35.90
2022-08-05T11:37:55.145Z,36.87
2022-08-05T11:38:28.356Z,36.40
2022-08-05T11:39:06.739Z,36.69
2022-08-05T11:40:05.724Z,35.92
2022-08-05T11:41:34.611Z,36.04
2022-08-05T11:42:06.646Z,36.32
2022-08-05T11:43:05.619Z,36.93
2022-08-05T11:44:08.328Z,37.41
2022-08-05T11:45:05.670Z,37.51
2022-08-05T11:46:27.365Z,36.63
2022-08-05T11:47:12.054Z,36.93
2022-08-05T11:48:06.589Z,37.72
2022-08-05T11:49:08.060Z,38.29
2022-08-05T11:50:05.543Z,38.77
2022-08-05T11:51:05.520Z,37.22
2022-08-05T11:52:11.475Z,37.32
2022-08-05T11:53:09.973Z,37.90
2022-08-05T11:54:05.533Z,37.32
2022-08-05T11:55:07.453Z,37.99
2022-08-05T11:56:05.525Z,37.99
2022-08-05T11:57:08.131Z,37.02
2022-08-05T11:58:08.146Z,36.24
2022-08-05T11:59:13.600Z,36.75
2022-08-05T12:00:06.452Z,36.65
2022-08-05T12:01:08.500Z,36.44
2022-08-05T12:02:06.391Z,37.02
2022-08-05T12:03:06.401Z,35.96
2022-08-05T12:04:05.372Z,36.73
2022-08-05T12:05:08.112Z,37.32
2022-08-05T12:06:10.003Z,37.01
2022-08-05T12:07:05.326Z,35.94
2022-08-05T12:08:10.799Z,35.45
2022-08-05T12:09:06.322Z,37.12
2022-08-05T12:10:09.425Z,36.42
2022-08-05T12:11:06.449Z,36.71
2022-08-05T12:12:05.263Z,37.68
2022-08-05T12:13:15.811Z,37.59
2022-08-05T12:14:06.311Z,38.54
2022-08-05T12:15:05.246Z,38.73
2022-08-05T12:16:14.252Z,35.32
2022-08-05T12:18:00.530Z,35.03
2022-08-05T12:18:10.585Z,34.66
2022-08-05T12:19:08.139Z,35.33
2022-08-05T12:20:16.815Z,35.16
2022-08-05T12:21:06.162Z,34.87
2022-08-05T12:22:05.136Z,34.97
2022-08-05T12:23:05.148Z,36.05
2022-08-05T12:24:07.034Z,35.74
2022-08-05T12:25:05.097Z,37.88
2022-08-05T12:26:05.113Z,36.22
2022-08-05T12:27:09.898Z,36.42
2022-08-05T12:28:06.077Z,36.15
2022-08-05T12:29:05.073Z,35.08
2022-08-05T12:30:05.036Z,36.26
2022-08-05T12:31:05.051Z,35.68
2022-08-05T12:32:05.034Z,36.26
2022-08-05T12:33:07.165Z,37.35
2022-08-05T12:34:05.988Z,37.06
2022-08-05T12:35:04.978Z,36.77
2022-08-05T12:36:07.035Z,36.77
2022-08-05T12:37:04.958Z,37.93
2022-08-05T12:38:04.951Z,38.23
2022-08-05T12:39:06.856Z,36.98
2022-08-05T12:40:10.396Z,37.66
2022-08-05T12:41:09.670Z,34.64
2022-08-05T12:42:05.900Z,37.56
2022-08-05T12:43:04.900Z,37.37
2022-08-05T12:44:04.859Z,38.44
2022-08-05T12:45:08.935Z,38.44
2022-08-05T12:46:05.862Z,38.24
2022-08-05T12:47:04.841Z,38.15
2022-08-05T12:48:26.850Z,36.59
2022-08-05T12:49:12.942Z,37.76
2022-08-05T12:50:07.202Z,37.66
2022-08-05T12:51:04.790Z,37.46
2022-08-05T12:52:12.321Z,38.73
2022-08-05T12:53:05.761Z,37.85